createdAt,value
2019-04-11T00:01:36.768Z,35.35
2019-04-11T00:04:02.001Z,35.36
2019-04-11T00:06:33.817Z,35.38
2019-04-11T00:09:08.829Z,35.40
2019-04-11T00:11:40.118Z,35.43
2019-04-11T00:14:13.733Z,35.43
2019-04-11T00:16:45.637Z,35.36
2019-04-11T00:19:16.882Z,35.45
2019-04-11T00:21:48.893Z,35.49
2019-04-11T00:24:20.774Z,35.54
2019-04-11T00:26:53.074Z,35.59
2019-04-11T00:29:24.258Z,35.62
2019-04-11T00:31:55.443Z,35.61
2019-04-11T00:34:26.890Z,35.58
2019-04-11T00:36:58.895Z,35.63
2019-04-11T00:39:30.155Z,35.71
2019-04-11T00:42:02.020Z,35.75
2019-04-11T00:44:33.232Z,35.81
2019-04-11T00:47:04.791Z,35.78
2019-04-11T00:49:36.649Z,35.77
2019-04-11T00:52:08.948Z,35.90
2019-04-11T00:54:40.739Z,35.89
2019-04-11T00:57:12.784Z,35.97
2019-04-11T00:59:44.693Z,35.99
2019-04-11T01:02:16.075Z,36.02
2019-04-11T01:04:47.286Z,36.07
2019-04-11T01:07:18.583Z,36.11
2019-04-11T01:09:50.698Z,36.09
2019-04-11T01:12:22.848Z,36.17
2019-04-11T01:14:55.290Z,36.16
2019-04-11T01:17:27.473Z,36.18
2019-04-11T01:19:59.414Z,36.15
2019-04-11T01:22:30.604Z,36.17
2019-04-11T01:25:02.151Z,36.15
2019-04-11T01:27:34.150Z,36.17
2019-04-11T01:30:08.706Z,36.22
2019-04-11T01:32:40.284Z,36.22
2019-04-11T01:35:11.532Z,36.21
2019-04-11T01:37:43.931Z,36.15
2019-04-11T01:40:15.804Z,36.14
2019-04-11T01:42:47.167Z,36.13
2019-04-11T01:45:21.140Z,36.12
2019-04-11T01:48:07.037Z,36.14
2019-04-11T01:50:38.411Z,36.18
2019-04-11T01:53:10.914Z,36.29
2019-04-11T01:55:42.902Z,36.31
2019-04-11T01:58:14.301Z,36.39
2019-04-11T02:00:54.751Z,36.42
2019-04-11T02:03:39.429Z,36.46
2019-04-11T02:06:11.763Z,36.50
2019-04-11T02:08:43.865Z,36.57
2019-04-11T02:11:15.433Z,36.58
2019-04-11T02:13:46.639Z,36.62
2019-04-11T02:16:18.919Z,36.68
2019-04-11T02:18:50.192Z,36.75
2019-04-11T02:21:21.973Z,36.85
2019-04-11T02:24:30.188Z,36.97
2019-04-11T02:27:06.498Z,37.06
2019-04-11T02:29:38.785Z,37.12
2019-04-11T02:32:12.189Z,37.14
2019-04-11T02:34:43.883Z,37.12
2019-04-11T02:37:15.330Z,37.08
2019-04-11T02:39:47.263Z,37.05
2019-04-11T02:42:19.117Z,37.06
2019-04-11T02:45:03.085Z,37.04
2019-04-11T02:47:27.569Z,37.07
2019-04-11T02:49:57.340Z,37.05
2019-04-11T02:52:29.312Z,37.06
2019-04-11T02:55:00.851Z,37.12
2019-04-11T02:57:32.319Z,37.22
2019-04-11T03:00:04.444Z,37.25
2019-04-11T03:02:39.245Z,37.24
2019-04-11T03:05:12.006Z,37.26
2019-04-11T03:07:43.162Z,37.30
2019-04-11T03:10:14.470Z,37.34
2019-04-11T03:12:47.552Z,37.36
2019-04-11T03:15:31.757Z,37.36
2019-04-11T03:17:58.970Z,37.42
2019-04-11T03:20:32.521Z,37.51
2019-04-11T03:23:04.073Z,37.59
2019-04-11T03:25:33.037Z,37.66
2019-04-11T03:28:05.496Z,37.77
2019-04-11T03:30:56.859Z,37.86
2019-04-11T03:34:01.865Z,37.97
2019-04-11T03:38:37.649Z,38.06
2019-04-11T03:41:04.290Z,38.10
2019-04-11T03:43:34.525Z,38.13
2019-04-11T03:46:15.916Z,38.17
2019-04-11T03:48:40.088Z,38.19
2019-04-11T03:51:01.844Z,38.18
2019-04-11T03:53:34.864Z,38.23
2019-04-11T03:56:07.624Z,38.25
2019-04-11T03:58:39.768Z,38.26
2019-04-11T04:01:11.849Z,38.30
2019-04-11T04:03:44.689Z,38.32
2019-04-11T04:06:16.968Z,38.35
2019-04-11T04:08:48.773Z,38.40
2019-04-11T04:11:27.164Z,38.48
2019-04-11T04:14:17.177Z,38.52
2019-04-11T04:17:14.849Z,38.56
2019-04-11T04:19:59.631Z,38.58
2019-04-11T04:22:54.697Z,38.59
2019-04-11T04:25:28.403Z,38.67
2019-04-11T04:27:59.679Z,38.72
2019-04-11T04:30:31.158Z,38.75
2019-04-11T04:33:02.902Z,38.81
2019-04-11T04:35:36.380Z,38.86
2019-04-11T04:38:09.375Z,38.90
2019-04-11T04:40:54.135Z,38.96
2019-04-11T04:43:14.615Z,39.00
2019-04-11T04:46:06.593Z,39.06
2019-04-11T04:48:22.327Z,39.11
2019-04-11T04:50:54.166Z,39.19
2019-04-11T04:53:26.596Z,39.20
2019-04-11T04:55:57.685Z,39.27
2019-04-11T04:58:29.336Z,39.31
2019-04-11T05:01:01.394Z,39.32
2019-04-11T05:03:34.297Z,39.41
2019-04-11T05:06:05.923Z,39.42
2019-04-11T05:08:40.870Z,39.36
2019-04-11T05:11:13.822Z,39.49
2019-04-11T05:13:49.251Z,39.50
2019-04-11T05:16:18.234Z,39.65
2019-04-11T05:18:50.259Z,39.65
2019-04-11T05:21:21.687Z,39.63
2019-04-11T05:23:52.837Z,39.65
2019-04-11T05:26:24.059Z,39.73
2019-04-11T05:28:57.185Z,39.80
2019-04-11T05:31:28.440Z,39.79
2019-04-11T05:33:59.653Z,39.87
2019-04-11T05:36:30.864Z,39.94
2019-04-11T05:39:02.345Z,40.00
2019-04-11T05:41:34.999Z,40.05
2019-04-11T05:44:10.464Z,40.03
2019-04-11T05:46:49.290Z,39.99
2019-04-11T05:49:21.063Z,39.96
2019-04-11T05:51:58.650Z,39.97
2019-04-11T05:54:33.318Z,39.95
2019-04-11T05:57:05.418Z,40.08
2019-04-11T05:59:37.637Z,40.05
2019-04-11T06:02:21.646Z,40.25
2019-04-11T06:05:00.521Z,40.21
2019-04-11T06:07:42.164Z,40.26
2019-04-11T06:10:17.812Z,40.20
2019-04-11T06:13:10.148Z,40.21
2019-04-11T06:15:44.355Z,40.22
2019-04-11T06:18:37.352Z,40.23
2019-04-11T06:21:19.976Z,40.18
2019-04-11T06:24:12.049Z,40.50
2019-04-11T06:26:49.147Z,40.45
2019-04-11T06:29:26.781Z,40.43
2019-04-11T06:32:16.100Z,40.46
2019-04-11T06:35:01.905Z,40.56
2019-04-11T06:37:50.583Z,40.47
2019-04-11T06:40:32.671Z,40.46
2019-04-11T06:43:25.755Z,40.41
2019-04-11T06:46:16.656Z,40.39
2019-04-11T06:48:57.945Z,40.31
2019-04-11T06:51:37.813Z,40.28
2019-04-11T06:54:25.208Z,40.24
2019-04-11T06:56:57.280Z,40.24
2019-04-11T06:59:32.887Z,40.10
2019-04-11T07:02:16.435Z,40.14
2019-04-11T07:04:49.610Z,39.99
2019-04-11T07:07:21.657Z,40.09
2019-04-11T07:10:01.941Z,40.15
2019-04-11T07:12:55.215Z,40.03
2019-04-11T07:15:44.262Z,40.12
2019-04-11T07:18:44.212Z,40.13
2019-04-11T07:21:15.423Z,40.11
2019-04-11T07:24:05.362Z,40.14
2019-04-11T07:26:50.047Z,40.14
2019-04-11T07:29:46.506Z,40.10
2019-04-11T07:32:23.354Z,40.02
2019-04-11T07:35:12.984Z,39.91
2019-04-11T07:37:47.406Z,39.86
2019-04-11T07:40:39.357Z,39.81
2019-04-11T07:43:29.686Z,39.82
2019-04-11T07:46:27.226Z,39.85
2019-04-11T07:49:03.771Z,39.91
2019-04-11T07:51:42.914Z,39.92
2019-04-11T07:54:15.925Z,39.79
2019-04-11T07:57:06.209Z,39.79
2019-04-11T07:59:56.346Z,39.70
2019-04-11T08:02:53.209Z,39.61
2019-04-11T08:05:56.607Z,39.58
2019-04-11T08:09:05.120Z,39.52
2019-04-11T08:11:54.042Z,39.52
2019-04-11T08:14:44.863Z,39.36
2019-04-11T08:17:28.186Z,39.20
2019-04-11T08:20:25.523Z,39.07
2019-04-11T08:22:59.606Z,39.01
2019-04-11T08:25:53.636Z,38.96
2019-04-11T08:28:26.612Z,38.85
2019-04-11T08:31:26.542Z,38.93
2019-04-11T08:34:04.805Z,38.84
2019-04-11T08:36:55.470Z,38.78
2019-04-11T08:39:31.347Z,38.66
2019-04-11T08:42:40.780Z,38.57
2019-04-11T08:45:19.677Z,38.48
2019-04-11T08:47:54.528Z,38.53
2019-04-11T08:50:28.909Z,38.54
2019-04-11T08:53:19.079Z,38.52
2019-04-11T08:56:01.853Z,38.45
2019-04-11T08:59:03.410Z,38.48
2019-04-11T09:01:34.593Z,38.32
2019-04-11T09:04:27.593Z,38.16
2019-04-11T09:06:58.961Z,38.02
2019-04-11T09:09:47.924Z,37.95
2019-04-11T09:12:19.079Z,37.92
2019-04-11T09:15:19.140Z,37.88
2019-04-11T09:18:04.294Z,37.77
2019-04-11T09:20:49.128Z,37.66
2019-04-11T09:23:23.818Z,37.66
2019-04-11T09:26:32.169Z,37.54
2019-04-11T09:29:04.426Z,37.55
2019-04-11T09:31:55.884Z,37.40
2019-04-11T09:34:41.905Z,37.31
2019-04-11T09:37:29.721Z,37.15
2019-04-11T09:40:23.842Z,37.13
2019-04-11T09:43:28.303Z,37.06
2019-04-11T09:46:18.485Z,37.09
2019-04-11T09:49:15.034Z,36.96
2019-04-11T09:52:06.036Z,36.64
2019-04-11T09:54:57.022Z,36.48
2019-04-11T09:57:44.166Z,36.23
2019-04-11T10:00:41.064Z,36.00
2019-04-11T10:03:19.810Z,35.71
2019-04-11T10:06:19.471Z,35.50
2019-04-11T10:08:57.627Z,35.35
2019-04-11T10:11:48.513Z,35.36
2019-04-11T10:14:21.627Z,35.07
2019-04-11T10:17:10.772Z,35.03
2019-04-11T10:19:46.933Z,34.99
2019-04-11T10:22:49.414Z,34.87
2019-04-11T10:25:30.223Z,34.80
2019-04-11T10:28:30.384Z,34.73
2019-04-11T10:31:12.621Z,34.57
2019-04-11T10:34:06.107Z,34.45
2019-04-11T10:36:55.874Z,34.39
2019-04-11T10:39:55.089Z,34.36
2019-04-11T10:42:26.846Z,34.23
2019-04-11T10:45:15.329Z,34.14
2019-04-11T10:47:47.546Z,34.09
2019-04-11T10:50:26.045Z,34.04
2019-04-11T10:53:00.640Z,34.03
2019-04-11T10:56:00.077Z,33.95
2019-04-11T10:58:57.316Z,33.80
2019-04-11T11:01:46.469Z,33.81
2019-04-11T11:04:20.141Z,33.83
2019-04-11T11:06:54.357Z,33.79
2019-04-11T11:09:32.398Z,33.78
2019-04-11T11:12:29.644Z,33.85
2019-04-11T11:15:11.900Z,33.88
2019-04-11T11:20:58.803Z,33.90
2019-04-11T11:23:59.206Z,33.86
2019-04-11T11:26:33.885Z,33.81
2019-04-11T11:29:30.121Z,33.79
2019-04-11T11:32:05.143Z,33.74
2019-04-11T11:34:44.576Z,33.71
2019-04-11T11:37:42.250Z,33.64
2019-04-11T11:40:32.010Z,33.61
2019-04-11T11:43:17.027Z,33.61
2019-04-11T11:46:04.035Z,33.53
2019-04-11T11:48:37.515Z,33.47
2019-04-11T11:51:39.756Z,33.46
2019-04-11T11:54:14.026Z,33.47
2019-04-11T11:56:47.270Z,33.46
2019-04-11T11:59:36.553Z,33.41
2019-04-11T12:02:15.681Z,33.44
2019-04-11T12:05:10.481Z,33.38
2019-04-11T12:08:04.269Z,33.44
2019-04-11T12:10:41.650Z,33.37
2019-04-11T12:13:45.306Z,33.23
2019-04-11T12:16:36.866Z,33.08
2019-04-11T12:19:45.759Z,33.10
2019-04-11T12:22:06.271Z,33.12
2019-04-11T12:24:59.174Z,32.97
2019-04-11T12:27:48.009Z,32.80
2019-04-11T12:30:33.884Z,32.64
2019-04-11T12:33:21.924Z,32.51
2019-04-11T12:36:10.542Z,32.42
2019-04-11T12:38:59.178Z,32.35
2019-04-11T12:41:53.266Z,32.38
2019-04-11T12:44:49.419Z,32.30
2019-04-11T12:47:49.226Z,32.28
2019-04-11T12:50:39.383Z,32.17
2019-04-11T12:53:12.347Z,32.20
2019-04-11T12:56:05.554Z,32.19
2019-04-11T12:58:42.415Z,32.08
2019-04-11T13:01:31.820Z,31.99
2019-04-11T13:04:20.695Z,31.90
2019-04-11T13:07:09.681Z,32.06
2019-04-11T13:09:59.766Z,31.99
2019-04-11T13:12:48.641Z,32.00
2019-04-11T13:15:33.128Z,31.95
2019-04-11T13:18:32.223Z,31.88
2019-04-11T13:21:22.371Z,31.75
2019-04-11T13:24:12.500Z,31.78
2019-04-11T13:27:01.143Z,31.74
2019-04-11T13:29:57.311Z,31.75
2019-04-11T13:32:33.688Z,31.81
2019-04-11T13:35:27.100Z,31.84
2019-04-11T13:38:26.336Z,32.00
2019-04-11T13:41:14.481Z,32.05
2019-04-11T13:44:00.771Z,32.12
2019-04-11T13:46:50.907Z,32.16
2019-04-11T13:49:53.051Z,32.13
2019-04-11T13:52:38.034Z,32.11
2019-04-11T13:55:34.455Z,32.02
2019-04-11T13:58:23.387Z,32.08
2019-04-11T14:00:55.732Z,32.07
2019-04-11T14:03:46.690Z,31.93
2019-04-11T14:06:23.860Z,31.85
2019-04-11T14:09:19.929Z,31.79
2019-04-11T14:11:58.318Z,31.74
2019-04-11T14:15:06.018Z,31.78
2019-04-11T14:18:05.091Z,31.77
2019-04-11T14:20:43.924Z,31.90
2019-04-11T14:23:34.209Z,31.98
2019-04-11T14:26:23.458Z,32.05
2019-04-11T14:29:19.502Z,32.00
2019-04-11T14:32:00.064Z,32.00
2019-04-11T14:34:48.932Z,31.99
2019-04-11T14:37:39.073Z,31.98
2019-04-11T14:40:21.029Z,31.92
2019-04-11T14:43:18.354Z,31.98
2019-04-11T14:46:08.563Z,31.97
2019-04-11T14:48:44.732Z,31.94
2019-04-11T14:51:27.151Z,32.03
2019-04-11T14:54:07.707Z,32.06
2019-04-11T14:56:43.006Z,32.10
2019-04-11T14:59:29.559Z,32.12
2019-04-11T15:02:08.036Z,32.17
2019-04-11T15:04:56.708Z,32.27
2019-04-11T15:07:28.800Z,32.30
2019-04-11T15:10:28.306Z,32.34
2019-04-11T15:12:59.718Z,32.35
2019-04-11T15:15:50.005Z,32.40
2019-04-11T15:18:22.315Z,32.37
2019-04-11T15:21:08.059Z,32.37
2019-04-11T15:23:42.038Z,32.40
2019-04-11T15:26:30.833Z,32.42
2019-04-11T15:29:08.621Z,32.51
2019-04-11T15:32:01.901Z,32.53
2019-04-11T15:34:48.875Z,32.46
2019-04-11T15:37:38.984Z,32.41
2019-04-11T15:40:29.189Z,32.35
2019-04-11T15:43:18.102Z,32.35
2019-04-11T15:45:53.479Z,32.26
2019-04-11T15:49:02.209Z,32.31
2019-04-11T15:51:37.469Z,32.36
2019-04-11T15:54:17.886Z,32.47
2019-04-11T15:56:54.644Z,32.49
2019-04-11T15:59:56.656Z,32.54
2019-04-11T16:02:52.891Z,32.58
2019-04-11T16:05:49.081Z,32.61
2019-04-11T16:08:43.320Z,32.77
2019-04-11T16:11:34.317Z,32.79
2019-04-11T16:14:19.539Z,32.81
2019-04-11T16:17:13.766Z,32.77
2019-04-11T16:20:06.508Z,32.75
2019-04-11T16:23:11.714Z,32.78
2019-04-11T16:25:53.561Z,32.80
2019-04-11T16:28:46.697Z,32.85
2019-04-11T16:31:17.853Z,32.82
2019-04-11T16:34:11.083Z,32.83
2019-04-11T16:36:53.878Z,32.85
2019-04-11T16:39:52.081Z,32.92
2019-04-11T16:42:29.327Z,32.96
2019-04-11T16:45:24.742Z,33.01
2019-04-11T16:48:03.132Z,33.09
2019-04-11T16:50:34.327Z,33.30
2019-04-11T16:53:10.566Z,33.51
2019-04-11T16:55:41.940Z,33.76
2019-04-11T16:58:15.220Z,33.92
2019-04-11T17:00:45.599Z,34.08
2019-04-11T17:03:17.388Z,34.16
2019-04-11T17:06:13.633Z,34.35
2019-04-11T17:08:56.100Z,34.43
2019-04-11T17:11:27.119Z,34.61
2019-04-11T17:13:58.495Z,34.71
2019-04-11T17:16:30.737Z,34.85
2019-04-11T17:19:05.043Z,34.93
2019-04-11T17:21:43.135Z,34.95
2019-04-11T17:24:08.149Z,35.01
2019-04-11T17:26:39.356Z,35.06
2019-04-11T17:29:10.553Z,35.10
2019-04-11T17:31:41.723Z,35.25
2019-04-11T17:34:12.858Z,35.30
2019-04-11T17:36:44.083Z,35.36
2019-04-11T17:39:15.328Z,35.46
2019-04-11T17:41:46.659Z,35.46
2019-04-11T17:44:17.896Z,35.48
2019-04-11T17:46:49.177Z,35.54
2019-04-11T17:49:20.331Z,35.56
2019-04-11T17:51:56.178Z,35.64
2019-04-11T17:54:24.898Z,35.65
2019-04-11T17:56:59.034Z,35.68
2019-04-11T17:59:29.721Z,35.72
2019-04-11T18:02:00.869Z,35.71
2019-04-11T18:04:33.081Z,35.75
2019-04-11T18:07:04.375Z,35.88
2019-04-11T18:09:35.565Z,35.96
2019-04-11T18:12:06.841Z,36.00
2019-04-11T18:14:39.271Z,36.09
2019-04-11T18:17:10.552Z,36.12
2019-04-11T18:19:41.858Z,36.14
2019-04-11T18:22:14.230Z,36.12
2019-04-11T18:24:49.909Z,36.15
2019-04-11T18:27:21.539Z,36.18
2019-04-11T18:29:53.008Z,36.18
2019-04-11T18:32:24.670Z,36.22
2019-04-11T18:34:55.911Z,36.21
2019-04-11T18:37:29.757Z,36.21
2019-04-11T18:40:01.119Z,36.27
2019-04-11T18:42:32.420Z,36.31
2019-04-11T18:45:03.709Z,36.37
2019-04-11T18:47:34.889Z,36.41
2019-04-11T18:50:07.854Z,36.41
2019-04-11T18:52:39.188Z,36.42
2019-04-11T18:55:10.357Z,36.44
2019-04-11T18:57:41.618Z,36.48
2019-04-11T19:00:15.550Z,36.51
2019-04-11T19:02:47.022Z,36.55
2019-04-11T19:05:28.192Z,36.68
2019-04-11T19:07:51.377Z,36.68
2019-04-11T19:10:23.762Z,36.72
2019-04-11T19:12:56.325Z,36.80
2019-04-11T19:15:27.577Z,36.95
2019-04-11T19:18:06.242Z,36.94
2019-04-11T19:20:31.930Z,37.00
2019-04-11T19:23:03.280Z,37.08
2019-04-11T19:25:34.517Z,37.13
2019-04-11T19:28:05.694Z,37.20
2019-04-11T19:30:37.662Z,37.30
2019-04-11T19:33:10.117Z,37.29
2019-04-11T19:35:42.299Z,37.39
2019-04-11T19:38:28.631Z,37.40
2019-04-11T19:41:00.772Z,37.40
2019-04-11T19:43:32.795Z,37.50
2019-04-11T19:46:05.336Z,37.41
2019-04-11T19:48:37.503Z,37.50
2019-04-11T19:51:10.925Z,37.48
2019-04-11T19:53:41.893Z,37.51
2019-04-11T19:56:21.044Z,37.50
2019-04-11T19:58:52.377Z,37.52
2019-04-11T20:01:23.654Z,37.56
2019-04-11T20:03:54.932Z,37.57
2019-04-11T20:06:26.495Z,37.66
2019-04-11T20:08:57.867Z,37.70
2019-04-11T20:11:30.020Z,37.89
2019-04-11T20:14:02.823Z,37.85
2019-04-11T20:16:41.356Z,37.92
2019-04-11T20:19:07.338Z,37.94
2019-04-11T20:21:39.056Z,37.92
2019-04-11T20:24:14.094Z,37.92
2019-04-11T20:26:43.488Z,38.01
2019-04-11T20:29:14.766Z,37.96
2019-04-11T20:31:45.919Z,37.96
2019-04-11T20:34:26.783Z,37.99
2019-04-11T20:36:50.062Z,38.03
2019-04-11T20:39:21.252Z,38.06
2019-04-11T20:41:53.497Z,38.10
2019-04-11T20:44:27.428Z,38.18
2019-04-11T20:47:00.458Z,38.22
2019-04-11T20:49:32.946Z,38.28
2019-04-11T20:52:04.200Z,38.30
2019-04-11T20:54:38.452Z,38.40
2019-04-11T20:57:11.870Z,38.53
2019-04-11T20:59:42.623Z,38.72
2019-04-11T21:02:14.093Z,39.01
2019-04-11T21:04:45.423Z,38.94
2019-04-11T21:07:16.671Z,39.12
2019-04-11T21:09:47.828Z,39.13
2019-04-11T21:12:19.043Z,39.15
2019-04-11T21:14:50.275Z,39.16
2019-04-11T21:17:21.651Z,39.17
2019-04-11T21:19:53.244Z,39.15
2019-04-11T21:22:24.992Z,39.12
2019-04-11T21:24:56.320Z,39.13
2019-04-11T21:27:28.916Z,39.15
2019-04-11T21:30:00.840Z,39.13
2019-04-11T21:32:32.679Z,39.13
2019-04-11T21:35:04.651Z,39.15
2019-04-11T21:37:36.829Z,39.18
2019-04-11T21:40:08.168Z,39.23
2019-04-11T21:42:39.355Z,39.24
2019-04-11T21:45:12.064Z,39.29
2019-04-11T21:47:43.290Z,39.28
2019-04-11T21:50:14.814Z,39.38
2019-04-11T21:52:46.113Z,39.47
2019-04-11T21:55:17.349Z,39.48
2019-04-11T21:57:49.531Z,39.50
2019-04-11T22:00:28.364Z,39.58
2019-04-11T22:03:01.497Z,39.59
2019-04-11T22:05:33.757Z,39.63
2019-04-11T22:08:05.054Z,39.71
2019-04-11T22:10:40.054Z,39.74
2019-04-11T22:13:10.110Z,39.74
2019-04-11T22:15:43.067Z,39.82
2019-04-11T22:18:16.708Z,39.99
2019-04-11T22:20:47.233Z,39.94
2019-04-11T22:23:19.359Z,40.01
2019-04-11T22:25:53.058Z,40.10
2019-04-11T22:28:25.474Z,40.15
2019-04-11T22:30:58.837Z,40.26
2019-04-11T22:33:38.049Z,40.29
2019-04-11T22:36:09.237Z,40.29
2019-04-11T22:38:40.402Z,40.25
2019-04-11T22:41:11.602Z,40.23
2019-04-11T22:43:42.908Z,40.42
2019-04-11T22:46:20.611Z,40.51
2019-04-11T22:48:47.165Z,40.65
2019-04-11T22:51:18.371Z,40.56
2019-04-11T22:53:59.902Z,40.51
2019-04-11T22:56:23.569Z,40.48
2019-04-11T22:58:54.808Z,40.51
2019-04-11T23:01:26.022Z,40.56
2019-04-11T23:04:01.395Z,40.59
2019-04-11T23:06:32.559Z,40.60
2019-04-11T23:09:05.201Z,40.64
2019-04-11T23:11:38.087Z,40.63
2019-04-11T23:14:09.387Z,40.81
2019-04-11T23:16:41.882Z,40.72
2019-04-11T23:19:14.397Z,40.81
2019-04-11T23:21:45.738Z,40.75
2019-04-11T23:24:17.017Z,40.86
2019-04-11T23:26:48.201Z,40.80
2019-04-11T23:29:19.384Z,40.88
2019-04-11T23:31:51.255Z,40.82
2019-04-11T23:34:22.761Z,40.80
2019-04-11T23:36:53.995Z,40.80
2019-04-11T23:39:25.173Z,40.78
2019-04-11T23:41:56.365Z,40.78
2019-04-11T23:44:27.580Z,40.90
2019-04-11T23:46:58.870Z,40.89
2019-04-11T23:49:30.113Z,41.02
2019-04-11T23:52:01.364Z,41.13
2019-04-11T23:54:32.556Z,41.11
2019-04-11T23:57:03.790Z,41.11
2019-04-11T23:59:34.947Z,41.08
